Pimentel, Peru
Current Conditions -  °F | °C
As of 8:00 AM on Thursday 23 Oct 2014 (Local Time) from SPHI Reporting Station
Overcast Overcast  
Wind Chill: 66°   Ceiling: 1400
Heat Index: 66°   Visibility: 6mi
Dew Point: 63°   Wind: 12mph
Humidity: 88%   Direction: 170°S
Pressure: 29.97"   Gusts: NA
Location:  6.83°S, 79.93°W
Report Text: SPHI 231300Z 17010KT 9999 SCT008 OVC014 19/17 Q1015 RMK PP000
Loading
Personal Weather Stations






























Interactive Weather Map
Tropical Storm Tracking
New forecast layout! Learn more

10-Day Weather Forecast

Advertisements
Track Severe Weather on mobile